Time;durP1;ratioP1;P1;durP2;ratioP2;P2;SDS_P1;SDS_P2;PMS_P1;PMS_P2;Temp;Humidity;BMP_temperature;BMP_pressure;BME280_temperature;BME280_humidity;BME280_pressure;Samples;Min_cycle;Max_cycle;Signal;HPM_P1;HPM_P2
2022/03/23 00:02:03;;;;;;;0.60;0.60;;;;;;;;;;6125412;23;20290;-79
2022/03/23 00:04:32;;;;;;;5.27;4.97;;;;;;;;;;6127101;23;20218;-79
2022/03/23 00:07:01;;;;;;;5.17;4.97;;;;;;;;;;6125379;23;20212;-79
2022/03/23 00:09:29;;;;;;;7.30;4.47;;;;;;;;;;6126593;23;20179;-80
2022/03/23 00:12:19;;;;;;;8.80;5.70;;;;;;;;;;6125163;23;20251;-78
2022/03/23 00:14:47;;;;;;;1.90;1.87;;;;;;;;;;6124923;23;20177;-79
2022/03/23 00:17:16;;;;;;;2.17;2.07;;;;;;;;;;6125227;23;20192;-79
2022/03/23 00:19:45;;;;;;;5.50;3.60;;;;;;;;;;6126509;23;20204;-79
2022/03/23 00:22:14;;;;;;;2.37;2.27;;;;;;;;;;6124908;23;20180;-79
2022/03/23 00:24:42;;;;;;;5.23;4.67;;;;;;;;;;6126448;23;20247;-79
2022/03/23 00:27:11;;;;;;;14.03;7.17;;;;;;;;;;6126514;23;20179;-80
2022/03/23 00:29:41;;;;;;;3.00;2.80;;;;;;;;;;6126781;23;20168;-79
2022/03/23 00:32:09;;;;;;;2.97;2.77;;;;;;;;;;6125063;23;20172;-80
2022/03/23 00:34:38;;;;;;;0.80;0.80;;;;;;;;;;6125415;23;20172;-79
2022/03/23 00:37:06;;;;;;;1.70;1.33;;;;;;;;;;6125010;23;20184;-79
2022/03/23 00:39:34;;;;;;;1.43;1.43;;;;;;;;;;6126785;23;20172;-79
2022/03/23 00:42:03;;;;;;;5.63;5.30;;;;;;;;;;6125046;23;20207;-79
2022/03/23 00:44:31;;;;;;;1.00;1.00;;;;;;;;;;6125502;23;20184;-79
2022/03/23 00:47:01;;;;;;;14.07;13.13;;;;;;;;;;6124923;23;20187;-79
2022/03/23 00:49:30;;;;;;;3.87;3.67;;;;;;;;;;6126165;23;20189;-79
2022/03/23 00:51:58;;;;;;;5.73;5.33;;;;;;;;;;6125373;23;20180;-79
2022/03/23 00:54:26;;;;;;;4.27;3.93;;;;;;;;;;6148871;23;20184;-79
2022/03/23 00:56:55;;;;;;;1.47;1.47;;;;;;;;;;6124873;23;20184;-79
2022/03/23 00:59:23;;;;;;;3.53;3.33;;;;;;;;;;6124868;23;20224;-79
2022/03/23 01:01:52;;;;;;;0.87;0.87;;;;;;;;;;6124870;23;20180;-80
2022/03/23 01:04:23;;;;;;;0.87;0.87;;;;;;;;;;6124494;23;20204;-79
2022/03/23 01:06:52;;;;;;;1.90;1.80;;;;;;;;;;6124794;23;20180;-80
2022/03/23 01:09:22;;;;;;;1.10;1.10;;;;;;;;;;6125126;23;20224;-79
2022/03/23 01:11:51;;;;;;;4.43;2.20;;;;;;;;;;6124231;23;20202;-79
2022/03/23 01:14:20;;;;;;;1.57;1.57;;;;;;;;;;6124613;23;20180;-79
2022/03/23 01:16:50;;;;;;;4.30;4.00;;;;;;;;;;6124787;23;20184;-79
2022/03/23 01:19:22;;;;;;;6.00;5.47;;;;;;;;;;6125809;23;20168;-79
2022/03/23 01:21:52;;;;;;;1.83;1.83;;;;;;;;;;6124513;23;20215;-79
2022/03/23 01:24:20;;;;;;;4.27;4.00;;;;;;;;;;6125110;23;20173;-79
2022/03/23 01:26:48;;;;;;;4.43;4.10;;;;;;;;;;6124126;23;20184;-79
2022/03/23 01:29:17;;;;;;;3.37;3.17;;;;;;;;;;6124584;23;20200;-79
2022/03/23 01:31:46;;;;;;;5.47;5.17;;;;;;;;;;6124575;23;20211;-80
2022/03/23 01:34:15;;;;;;;3.23;3.13;;;;;;;;;;6124730;23;20188;-79
2022/03/23 01:36:43;;;;;;;8.37;7.83;;;;;;;;;;6124805;23;20177;-79
2022/03/23 01:39:13;;;;;;;6.97;6.30;;;;;;;;;;6124831;23;20175;-79
2022/03/23 01:41:42;;;;;;;5.03;4.70;;;;;;;;;;6124585;23;20180;-79
2022/03/23 01:44:14;;;;;;;7.13;6.43;;;;;;;;;;6126236;23;20245;-79
2022/03/23 01:47:07;;;;;;;5.57;5.13;;;;;;;;;;6125911;23;20180;-79
2022/03/23 01:49:36;;;;;;;1.27;1.27;;;;;;;;;;6097535;23;20203;-79
2022/03/23 01:52:06;;;;;;;2.80;2.70;;;;;;;;;;6124556;23;20175;-79
2022/03/23 01:54:37;;;;;;;1.17;1.17;;;;;;;;;;6124516;23;20186;-79
2022/03/23 01:57:06;;;;;;;3.97;3.70;;;;;;;;;;6125803;23;20172;-79
2022/03/23 01:59:35;;;;;;;5.27;4.57;;;;;;;;;;6124853;23;20178;-79
2022/03/23 02:02:04;;;;;;;4.30;3.27;;;;;;;;;;6148744;23;20212;-79
2022/03/23 02:04:33;;;;;;;5.17;4.77;;;;;;;;;;6125642;23;20233;-79
2022/03/23 02:07:03;;;;;;;4.73;4.47;;;;;;;;;;6124733;23;20178;-79
2022/03/23 02:09:32;;;;;;;2.80;2.13;;;;;;;;;;6126214;23;20200;-79
2022/03/23 02:12:07;;;;;;;6.43;5.13;;;;;;;;;;6123928;23;20173;-79
2022/03/23 02:14:35;;;;;;;8.33;6.03;;;;;;;;;;6124687;23;20179;-79
2022/03/23 02:17:04;;;;;;;18.37;8.50;;;;;;;;;;6124377;23;20203;-79
2022/03/23 02:19:33;;;;;;;15.17;8.80;;;;;;;;;;6124385;23;20259;-79
2022/03/23 02:22:03;;;;;;;39.83;10.53;;;;;;;;;;6124514;23;20183;-79
2022/03/23 02:24:32;;;;;;;8.90;7.43;;;;;;;;;;6149286;23;20179;-79
2022/03/23 02:27:01;;;;;;;2.27;2.17;;;;;;;;;;6124578;23;20183;-80
2022/03/23 02:29:31;;;;;;;5.53;5.13;;;;;;;;;;6124387;23;20196;-79
2022/03/23 02:32:01;;;;;;;15.77;14.03;;;;;;;;;;6124236;23;20229;-80
2022/03/23 02:34:30;;;;;;;10.07;8.20;;;;;;;;;;6124233;23;20179;-80
2022/03/23 02:36:58;;;;;;;5.90;5.30;;;;;;;;;;6124792;23;20184;-80
2022/03/23 02:39:28;;;;;;;7.73;4.63;;;;;;;;;;6126427;23;20179;-80
2022/03/23 02:41:57;;;;;;;3.77;2.87;;;;;;;;;;6125669;23;20215;-79
2022/03/23 02:44:26;;;;;;;1.63;1.60;;;;;;;;;;6126331;23;20206;-79
2022/03/23 02:46:55;;;;;;;13.93;12.53;;;;;;;;;;6125791;23;20184;-80
2022/03/23 02:49:23;;;;;;;10.67;9.70;;;;;;;;;;6126334;23;20199;-79
2022/03/23 02:51:52;;;;;;;11.03;7.30;;;;;;;;;;6125720;23;20198;-80
2022/03/23 03:03:05;;;;;;;1.37;1.37;;;;;;;;;;6125815;23;20178;-80
2022/03/23 03:05:33;;;;;;;5.63;3.90;;;;;;;;;;6126085;23;20214;-80
2022/03/23 03:10:48;;;;;;;1.20;1.20;;;;;;;;;;6127292;23;20190;-79
2022/03/23 03:13:18;;;;;;;1.77;1.77;;;;;;;;;;6126125;23;20180;-79
2022/03/23 03:15:46;;;;;;;7.13;6.43;;;;;;;;;;6125758;23;20190;-80
2022/03/23 03:18:15;;;;;;;12.37;8.27;;;;;;;;;;6126227;23;20189;-79
2022/03/23 03:20:43;;;;;;;0.90;0.90;;;;;;;;;;6125881;23;20190;-80
2022/03/23 03:23:12;;;;;;;1.33;1.33;;;;;;;;;;6125857;23;20266;-80
2022/03/23 03:25:40;;;;;;;1.83;1.73;;;;;;;;;;6126990;23;20171;-80
2022/03/23 03:28:09;;;;;;;0.80;0.80;;;;;;;;;;6125442;23;20191;-79
2022/03/23 03:30:39;;;;;;;9.60;6.50;;;;;;;;;;6125305;23;20443;-79
2022/03/23 03:33:07;;;;;;;2.00;1.47;;;;;;;;;;6127236;23;20194;-80
2022/03/23 03:35:36;;;;;;;7.50;6.73;;;;;;;;;;6125776;23;20234;-80
2022/03/23 03:38:04;;;;;;;2.90;2.80;;;;;;;;;;6125466;23;20188;-80
2022/03/23 03:40:32;;;;;;;4.07;3.77;;;;;;;;;;6125691;23;20187;-80
2022/03/23 03:43:01;;;;;;;1.30;1.30;;;;;;;;;;6126532;23;20214;-80
2022/03/23 03:45:29;;;;;;;0.70;0.70;;;;;;;;;;6125689;23;20187;-80
2022/03/23 03:47:59;;;;;;;0.70;0.70;;;;;;;;;;6125346;23;20183;-80
2022/03/23 03:50:28;;;;;;;1.80;1.77;;;;;;;;;;6125658;23;20203;-80
2022/03/23 03:52:57;;;;;;;2.87;2.13;;;;;;;;;;6126934;23;20175;-80
2022/03/23 03:55:25;;;;;;;2.20;2.20;;;;;;;;;;6127039;23;20178;-80
2022/03/23 03:57:54;;;;;;;2.20;2.10;;;;;;;;;;6126378;23;20172;-80
2022/03/23 04:00:22;;;;;;;7.33;6.57;;;;;;;;;;6125278;23;20181;-80
2022/03/23 04:02:50;;;;;;;9.67;8.60;;;;;;;;;;6125557;23;20257;-79
2022/03/23 04:05:20;;;;;;;9.30;6.93;;;;;;;;;;6126219;23;20197;-79
2022/03/23 04:07:49;;;;;;;2.50;1.53;;;;;;;;;;6125273;23;20186;-80
2022/03/23 04:10:17;;;;;;;6.63;6.23;;;;;;;;;;6125470;23;20529;-79
2022/03/23 04:12:45;;;;;;;2.67;2.23;;;;;;;;;;6125155;23;20183;-79
2022/03/23 04:15:15;;;;;;;2.20;2.10;;;;;;;;;;6125425;23;20190;-79
2022/03/23 04:17:43;;;;;;;11.77;7.50;;;;;;;;;;6125510;23;20184;-79
2022/03/23 04:20:12;;;;;;;2.50;2.30;;;;;;;;;;6125193;23;20175;-79
2022/03/23 04:22:42;;;;;;;2.23;2.13;;;;;;;;;;6125463;23;20269;-80
2022/03/23 04:25:11;;;;;;;2.60;2.50;;;;;;;;;;6124784;23;20241;-80
2022/03/23 04:27:46;;;;;;;6.90;4.10;;;;;;;;;;6125221;23;20197;-79
2022/03/23 04:30:14;;;;;;;0.80;0.80;;;;;;;;;;6125277;23;20203;-81
2022/03/23 04:32:44;;;;;;;1.80;1.80;;;;;;;;;;6125458;23;20182;-80
2022/03/23 04:35:13;;;;;;;3.50;2.20;;;;;;;;;;6126366;23;20208;-80
2022/03/23 04:37:43;;;;;;;1.40;1.40;;;;;;;;;;6126525;23;20197;-80
2022/03/23 04:40:14;;;;;;;4.00;3.63;;;;;;;;;;6125020;23;20179;-79
2022/03/23 04:42:43;;;;;;;3.63;3.43;;;;;;;;;;6124868;23;20206;-79
2022/03/23 04:45:12;;;;;;;2.40;2.20;;;;;;;;;;6124876;23;20178;-80
2022/03/23 04:47:40;;;;;;;7.03;5.53;;;;;;;;;;6126478;23;20241;-80
2022/03/23 04:50:10;;;;;;;1.00;1.00;;;;;;;;;;6126143;23;20203;-80
2022/03/23 04:52:39;;;;;;;1.27;1.27;;;;;;;;;;6124883;23;20191;-80
2022/03/23 04:55:10;;;;;;;4.53;3.97;;;;;;;;;;6126247;23;20204;-79
2022/03/23 04:57:39;;;;;;;10.37;5.97;;;;;;;;;;6124850;23;20185;-80
2022/03/23 05:00:10;;;;;;;3.50;3.33;;;;;;;;;;6149721;23;20178;-80
2022/03/23 05:02:44;;;;;;;5.83;5.30;;;;;;;;;;6124931;23;20177;-80
2022/03/23 05:05:13;;;;;;;2.57;2.37;;;;;;;;;;6125127;23;20195;-79
2022/03/23 05:07:41;;;;;;;0.90;0.90;;;;;;;;;;6124698;23;20185;-80
2022/03/23 05:10:12;;;;;;;2.20;2.00;;;;;;;;;;6125867;23;20193;-79
2022/03/23 05:12:41;;;;;;;1.40;1.40;;;;;;;;;;6124910;23;20174;-80
2022/03/23 05:15:09;;;;;;;0.70;0.70;;;;;;;;;;6149396;23;20174;-80
2022/03/23 05:17:38;;;;;;;3.53;3.23;;;;;;;;;;6124519;23;20177;-80
2022/03/23 05:20:07;;;;;;;2.37;2.27;;;;;;;;;;6124520;23;20237;-79
2022/03/23 05:22:37;;;;;;;3.83;2.63;;;;;;;;;;6125170;23;20265;-80
2022/03/23 05:25:06;;;;;;;0.70;0.70;;;;;;;;;;6124782;23;20236;-80
2022/03/23 05:27:36;;;;;;;0.70;0.70;;;;;;;;;;6125999;23;20179;-80
2022/03/23 05:30:07;;;;;;;1.40;1.40;;;;;;;;;;6126277;23;20253;-80
2022/03/23 05:32:35;;;;;;;3.20;3.00;;;;;;;;;;6124625;23;20176;-80
2022/03/23 05:35:04;;;;;;;1.90;1.80;;;;;;;;;;6124645;23;20185;-79
2022/03/23 05:37:32;;;;;;;0.70;0.70;;;;;;;;;;6126055;23;20240;-80
2022/03/23 05:40:06;;;;;;;3.70;3.50;;;;;;;;;;6124841;23;20280;-79
2022/03/23 05:42:36;;;;;;;3.70;2.40;;;;;;;;;;6124469;23;20257;-79
2022/03/23 05:45:05;;;;;;;10.30;9.20;;;;;;;;;;6125617;23;20179;-78
2022/03/23 05:47:34;;;;;;;4.53;3.07;;;;;;;;;;6124327;23;20182;-81
2022/03/23 05:50:02;;;;;;;4.17;3.80;;;;;;;;;;6124567;23;20178;-79
2022/03/23 05:52:31;;;;;;;4.13;3.90;;;;;;;;;;6124367;23;20182;-79
2022/03/23 05:55:01;;;;;;;3.17;2.97;;;;;;;;;;6123775;23;20193;-79
2022/03/23 05:57:29;;;;;;;2.17;2.07;;;;;;;;;;6126450;23;20173;-79
2022/03/23 05:59:59;;;;;;;0.73;0.73;;;;;;;;;;6124877;23;20239;-79
2022/03/23 06:02:28;;;;;;;2.70;2.50;;;;;;;;;;6124718;23;20224;-77
2022/03/23 06:04:56;;;;;;;0.70;0.70;;;;;;;;;;6124210;23;20207;-79
2022/03/23 06:07:25;;;;;;;0.70;0.70;;;;;;;;;;6124098;23;20177;-79
2022/03/23 06:09:53;;;;;;;1.63;1.63;;;;;;;;;;6125252;23;20174;-79
2022/03/23 06:12:22;;;;;;;3.23;2.93;;;;;;;;;;6125444;23;20205;-79
2022/03/23 06:14:51;;;;;;;4.43;3.80;;;;;;;;;;6126378;23;20184;-79
2022/03/23 06:17:20;;;;;;;0.80;0.80;;;;;;;;;;6127893;23;20186;-81
2022/03/23 06:19:49;;;;;;;2.90;2.40;;;;;;;;;;6126075;23;20210;-79
2022/03/23 06:22:18;;;;;;;5.27;3.03;;;;;;;;;;6127488;23;20178;-79
2022/03/23 06:24:46;;;;;;;0.77;0.77;;;;;;;;;;6126333;23;20184;-79
2022/03/23 06:27:15;;;;;;;1.57;1.57;;;;;;;;;;6127523;23;20179;-80
2022/03/23 06:29:43;;;;;;;2.03;2.03;;;;;;;;;;6150965;23;20266;-80
2022/03/23 06:32:12;;;;;;;3.27;3.17;;;;;;;;;;6126375;23;20188;-80
2022/03/23 06:34:42;;;;;;;2.17;2.13;;;;;;;;;;6127804;23;20175;-81
2022/03/23 06:37:11;;;;;;;0.70;0.70;;;;;;;;;;6126299;23;20179;-80
2022/03/23 06:39:39;;;;;;;0.70;0.70;;;;;;;;;;6150801;23;20176;-80
2022/03/23 06:42:08;;;;;;;0.83;0.83;;;;;;;;;;6125908;23;20215;-80
2022/03/23 06:44:38;;;;;;;0.80;0.80;;;;;;;;;;6126396;23;20183;-80
2022/03/23 06:47:06;;;;;;;2.67;2.57;;;;;;;;;;6126321;23;20201;-80
2022/03/23 06:49:34;;;;;;;3.87;3.57;;;;;;;;;;6125656;23;20184;-80
2022/03/23 06:52:04;;;;;;;3.07;2.87;;;;;;;;;;6127263;23;20221;-80
2022/03/23 06:54:33;;;;;;;2.50;2.40;;;;;;;;;;6126243;23;20184;-80
2022/03/23 06:57:01;;;;;;;0.70;0.70;;;;;;;;;;6150434;23;20180;-81
2022/03/23 06:59:30;;;;;;;3.63;3.47;;;;;;;;;;6126267;23;20191;-80
2022/03/23 07:01:58;;;;;;;3.40;1.27;;;;;;;;;;6126283;23;20172;-80
2022/03/23 07:04:27;;;;;;;2.17;2.07;;;;;;;;;;6126053;23;20283;-80
2022/03/23 07:06:55;;;;;;;0.60;0.60;;;;;;;;;;6125760;23;20262;-80
2022/03/23 07:09:34;;;;;;;2.60;2.50;;;;;;;;;;6126212;23;20196;-80
2022/03/23 07:12:05;;;;;;;0.80;0.80;;;;;;;;;;6150539;23;20204;-80
2022/03/23 07:14:34;;;;;;;3.30;3.00;;;;;;;;;;6125643;23;20180;-80
2022/03/23 07:17:03;;;;;;;2.00;2.00;;;;;;;;;;6125864;23;20204;-81
2022/03/23 07:19:34;;;;;;;1.93;1.83;;;;;;;;;;6126058;23;20184;-80
2022/03/23 07:22:02;;;;;;;0.80;0.80;;;;;;;;;;6125668;23;20187;-80
2022/03/23 07:24:32;;;;;;;1.37;1.37;;;;;;;;;;6125591;23;20184;-80
2022/03/23 07:27:05;;;;;;;6.20;5.20;;;;;;;;;;6125118;23;20180;-80
2022/03/23 07:29:47;;;;;;;12.40;8.83;;;;;;;;;;6127669;23;20196;-80
2022/03/23 07:32:15;;;;;;;17.63;13.30;;;;;;;;;;6125080;23;20291;-80
2022/03/23 07:34:43;;;;;;;7.40;6.77;;;;;;;;;;6126173;23;20187;-80
2022/03/23 07:37:12;;;;;;;7.47;5.53;;;;;;;;;;6126949;23;20184;-80
2022/03/23 07:39:42;;;;;;;10.00;8.03;;;;;;;;;;6127051;23;20183;-80
2022/03/23 07:42:11;;;;;;;12.00;9.67;;;;;;;;;;6127004;23;20211;-80
2022/03/23 07:44:40;;;;;;;10.57;8.07;;;;;;;;;;6125696;23;20181;-80
2022/03/23 07:47:10;;;;;;;8.33;6.97;;;;;;;;;;6125724;23;20180;-80
2022/03/23 07:49:39;;;;;;;9.33;8.37;;;;;;;;;;6125842;23;20172;-80
2022/03/23 07:52:11;;;;;;;6.43;5.83;;;;;;;;;;6126310;23;20189;-81
2022/03/23 07:54:52;;;;;;;20.53;12.53;;;;;;;;;;6148467;23;20207;-80
2022/03/23 08:01:41;;;;;;;16.63;11.60;;;;;;;;;;6118160;23;20186;-86
2022/03/23 08:45:05;;;;;;;14.00;9.33;;;;;;;;;;6210024;22;20232;-87
2022/03/23 08:57:30;;;;;;;8.57;6.40;;;;;;;;;;6185738;23;20209;-86
2022/03/23 09:00:33;;;;;;;8.37;6.20;;;;;;;;;;6189663;23;20214;-88
2022/03/23 09:04:10;;;;;;;;;;;;;;;;;;;;;
2022/03/23 09:18:08;;;;;;;17.40;12.97;;;;;;;;;;5936156;23;20188;-87
2022/03/23 09:28:51;;;;;;;6.23;5.37;;;;;;;;;;5945541;24;20213;-87
2022/03/23 09:42:21;;;;;;;10.67;6.90;;;;;;;;;;5772796;24;20262;-87
2022/03/23 09:51:16;;;;;;;;;;;;;;;;;;;;;
2022/03/23 09:58:34;;;;;;;7.70;5.77;;;;;;;;;;5930758;23;20245;-87
2022/03/23 10:09:13;;;;;;;13.27;8.83;;;;;;;;;;5779779;24;20180;-87
2022/03/23 10:12:00;;;;;;;10.97;7.60;;;;;;;;;;5984287;23;20294;-88
2022/03/23 10:14:47;;;;;;;10.50;6.70;;;;;;;;;;6008093;23;20178;-87
2022/03/23 10:17:36;;;;;;;14.20;10.07;;;;;;;;;;5983974;23;20218;-87
2022/03/23 10:20:05;;;;;;;10.47;9.20;;;;;;;;;;6008292;23;20186;-87
2022/03/23 10:22:46;;;;;;;6.83;4.73;;;;;;;;;;6008270;23;20269;-85
2022/03/23 10:25:15;;;;;;;16.30;10.03;;;;;;;;;;6007836;23;20293;-87
2022/03/23 10:27:45;;;;;;;10.13;6.20;;;;;;;;;;6007429;23;20270;-87
2022/03/23 10:30:15;;;;;;;6.63;5.53;;;;;;;;;;6007824;23;20229;-87
2022/03/23 10:32:45;;;;;;;9.63;7.83;;;;;;;;;;6007824;23;20350;-86
2022/03/23 10:35:15;;;;;;;6.17;4.00;;;;;;;;;;5989062;23;20373;-86
2022/03/23 10:37:45;;;;;;;9.67;6.07;;;;;;;;;;6077611;23;20213;-86
2022/03/23 10:40:15;;;;;;;5.53;3.97;;;;;;;;;;6188986;23;20185;-86
2022/03/23 10:42:44;;;;;;;14.77;9.37;;;;;;;;;;6188576;23;20281;-86
2022/03/23 10:45:19;;;;;;;14.27;8.57;;;;;;;;;;6188073;23;20264;-87
2022/03/23 10:47:50;;;;;;;10.73;7.20;;;;;;;;;;6188696;23;20221;-86
2022/03/23 10:50:19;;;;;;;5.33;4.20;;;;;;;;;;6187997;23;20199;-86
2022/03/23 10:52:52;;;;;;;15.33;8.07;;;;;;;;;;6188089;23;20282;-87
2022/03/23 10:55:22;;;;;;;4.57;3.47;;;;;;;;;;6188637;23;20171;-87
2022/03/23 10:58:09;;;;;;;19.87;10.33;;;;;;;;;;6188869;23;20178;-87
2022/03/23 11:00:39;;;;;;;14.43;10.93;;;;;;;;;;6215530;23;20175;-86
2022/03/23 11:03:11;;;;;;;14.63;10.77;;;;;;;;;;6215320;23;20175;-86
2022/03/23 11:05:41;;;;;;;12.33;8.07;;;;;;;;;;6215264;23;20175;-87
2022/03/23 11:08:11;;;;;;;12.00;8.07;;;;;;;;;;6190473;23;20174;-87
2022/03/23 11:16:30;;;;;;;18.20;9.30;;;;;;;;;;6070481;23;20180;-86
2022/03/23 11:19:07;;;;;;;8.33;5.90;;;;;;;;;;6070809;23;20182;-86
2022/03/23 11:21:57;;;;;;;14.00;10.13;;;;;;;;;;6132407;23;20257;-87
2022/03/23 11:24:26;;;;;;;14.20;8.03;;;;;;;;;;6214818;23;20171;-87
2022/03/23 11:26:56;;;;;;;13.90;9.60;;;;;;;;;;6189707;23;20258;-87
2022/03/23 11:29:24;;;;;;;14.57;7.63;;;;;;;;;;6189323;23;20178;-87
2022/03/23 11:31:53;;;;;;;15.43;9.33;;;;;;;;;;6189662;23;20292;-87
2022/03/23 11:34:24;;;;;;;7.37;5.67;;;;;;;;;;6190076;23;20194;-87
2022/03/23 11:36:54;;;;;;;13.03;6.87;;;;;;;;;;6189937;23;20228;-87
2022/03/23 11:39:24;;;;;;;19.07;6.00;;;;;;;;;;6189814;23;20195;-87
2022/03/23 11:41:53;;;;;;;13.80;5.43;;;;;;;;;;6189737;23;20174;-86
2022/03/23 11:44:22;;;;;;;12.30;5.40;;;;;;;;;;6189966;23;20177;-87
2022/03/23 11:46:52;;;;;;;14.67;5.40;;;;;;;;;;6188988;23;20244;-84
2022/03/23 11:49:26;;;;;;;12.40;6.97;;;;;;;;;;6189575;23;20235;-84
2022/03/23 11:52:02;;;;;;;8.23;4.73;;;;;;;;;;6189759;23;20266;-85
2022/03/23 11:55:37;;;;;;;18.13;6.57;;;;;;;;;;6186929;23;20198;-85
2022/03/23 11:57:22;;;;;;;15.07;7.10;;;;;;;;;;6188825;23;20179;-80
2022/03/23 11:59:51;;;;;;;8.83;5.07;;;;;;;;;;6189312;23;20232;-82
2022/03/23 12:02:19;;;;;;;3.83;3.27;;;;;;;;;;6188773;23;20178;-82
2022/03/23 12:04:49;;;;;;;13.27;8.13;;;;;;;;;;6188894;23;20280;-86
2022/03/23 12:07:18;;;;;;;5.40;4.23;;;;;;;;;;6189382;23;20265;-82
2022/03/23 12:09:48;;;;;;;5.77;3.60;;;;;;;;;;6188625;23;20185;-83
2022/03/23 12:12:28;;;;;;;12.53;6.17;;;;;;;;;;6188666;23;20182;-81
2022/03/23 12:15:14;;;;;;;12.40;5.80;;;;;;;;;;6188607;23;20191;-83
2022/03/23 12:17:59;;;;;;;14.07;8.90;;;;;;;;;;6183887;23;20174;-85
2022/03/23 12:20:33;;;;;;;6.40;4.17;;;;;;;;;;6185584;23;20209;-83
2022/03/23 12:23:17;;;;;;;6.50;4.00;;;;;;;;;;6186310;23;20233;-86
2022/03/23 12:25:53;;;;;;;10.60;5.50;;;;;;;;;;6185505;23;20179;-86
2022/03/23 12:28:28;;;;;;;12.90;7.67;;;;;;;;;;6183786;23;20232;-87
2022/03/23 12:31:09;;;;;;;12.73;9.27;;;;;;;;;;6184149;23;20175;-87
2022/03/23 12:33:57;;;;;;;9.53;6.07;;;;;;;;;;6182789;23;20207;-87
2022/03/23 12:39:31;;;;;;;7.80;6.63;;;;;;;;;;6182487;23;20255;-87
2022/03/23 12:42:00;;;;;;;10.00;6.53;;;;;;;;;;6183143;23;20202;-86
2022/03/23 12:44:30;;;;;;;15.00;5.63;;;;;;;;;;6183923;23;20202;-87
2022/03/23 12:47:08;;;;;;;5.33;3.57;;;;;;;;;;6182479;23;20203;-88
2022/03/23 12:58:04;;;;;;;9.53;5.03;;;;;;;;;;6188948;23;20179;-87
2022/03/23 13:00:34;;;;;;;11.90;9.13;;;;;;;;;;6187490;23;20488;-84
2022/03/23 13:03:33;;;;;;;9.97;7.30;;;;;;;;;;6184021;23;20262;-85
2022/03/23 13:06:07;;;;;;;7.73;4.73;;;;;;;;;;6183213;23;20185;-87
2022/03/23 13:08:47;;;;;;;4.40;3.20;;;;;;;;;;6182473;23;20176;-87
2022/03/23 13:11:20;;;;;;;3.50;2.20;;;;;;;;;;6181986;23;20180;-85
2022/03/23 13:13:53;;;;;;;8.67;5.77;;;;;;;;;;6185866;23;20196;-86
2022/03/23 13:16:22;;;;;;;6.87;6.23;;;;;;;;;;6185277;23;20175;-86
2022/03/23 13:18:54;;;;;;;16.43;8.47;;;;;;;;;;6182927;23;20187;-87
2022/03/23 13:21:24;;;;;;;19.67;12.23;;;;;;;;;;6183853;23;20178;-87
2022/03/23 13:23:56;;;;;;;3.77;2.73;;;;;;;;;;6208250;23;20244;-87
2022/03/23 13:26:25;;;;;;;15.10;6.70;;;;;;;;;;6182889;23;20178;-87
2022/03/23 13:28:55;;;;;;;10.93;7.93;;;;;;;;;;6183248;23;20178;-87
2022/03/23 13:31:25;;;;;;;18.77;11.67;;;;;;;;;;6185157;23;20175;-88
2022/03/23 13:33:53;;;;;;;10.93;8.03;;;;;;;;;;6182635;23;20251;-87
2022/03/23 13:36:24;;;;;;;11.37;7.83;;;;;;;;;;6182734;23;20178;-87
2022/03/23 13:38:55;;;;;;;14.00;8.17;;;;;;;;;;6183025;23;20234;-88
2022/03/23 13:44:11;;;;;;;13.57;9.80;;;;;;;;;;6183412;23;20174;-88
2022/03/23 13:46:41;;;;;;;11.77;7.90;;;;;;;;;;6183068;23;20202;-88
2022/03/23 13:49:11;;;;;;;7.17;4.23;;;;;;;;;;6181825;23;20258;-87
2022/03/23 13:51:42;;;;;;;18.47;9.90;;;;;;;;;;6181603;23;20182;-88
2022/03/23 13:54:14;;;;;;;6.57;5.13;;;;;;;;;;6184291;23;20202;-88
2022/03/23 13:56:43;;;;;;;11.17;6.87;;;;;;;;;;6186219;23;20183;-87
2022/03/23 13:59:14;;;;;;;13.17;9.77;;;;;;;;;;6182679;23;20183;-88
2022/03/23 14:01:47;;;;;;;7.63;6.13;;;;;;;;;;6185947;23;20221;-88
2022/03/23 14:04:17;;;;;;;16.63;8.37;;;;;;;;;;6185709;23;20227;-87
2022/03/23 14:06:47;;;;;;;10.60;7.30;;;;;;;;;;6187474;23;20179;-86
2022/03/23 14:09:19;;;;;;;14.73;9.40;;;;;;;;;;6189211;23;20174;-88
2022/03/23 14:12:00;;;;;;;22.23;8.43;;;;;;;;;;6209299;23;20210;-88
2022/03/23 14:14:33;;;;;;;12.60;7.57;;;;;;;;;;6182311;23;20200;-88
2022/03/23 14:17:10;;;;;;;17.00;7.17;;;;;;;;;;6187328;23;20178;-88
2022/03/23 14:19:41;;;;;;;18.53;11.57;;;;;;;;;;6182106;23;20189;-88
2022/03/23 14:22:11;;;;;;;9.23;5.77;;;;;;;;;;6180891;23;20207;-89
2022/03/23 14:24:41;;;;;;;17.47;11.20;;;;;;;;;;6181473;23;20174;-88
2022/03/23 14:27:23;;;;;;;7.37;5.53;;;;;;;;;;6209733;23;20180;-88
2022/03/23 14:30:11;;;;;;;12.77;7.50;;;;;;;;;;6182139;23;20185;-88
2022/03/23 14:32:47;;;;;;;8.87;7.33;;;;;;;;;;6183052;23;20179;-89
2022/03/23 14:35:20;;;;;;;13.40;7.23;;;;;;;;;;6211199;23;20262;-88
2022/03/23 14:37:50;;;;;;;15.20;11.70;;;;;;;;;;6184205;23;20186;-87
2022/03/23 14:40:26;;;;;;;9.73;5.40;;;;;;;;;;6183970;23;20305;-87
2022/03/23 14:42:56;;;;;;;15.90;9.97;;;;;;;;;;6182514;23;20210;-85
2022/03/23 14:45:42;;;;;;;16.20;8.43;;;;;;;;;;6182479;23;20206;-88
2022/03/23 14:48:16;;;;;;;5.23;4.37;;;;;;;;;;6186036;23;20186;-89
2022/03/23 14:50:46;;;;;;;9.20;5.07;;;;;;;;;;6184445;23;20194;-88
2022/03/23 14:53:15;;;;;;;9.97;7.27;;;;;;;;;;6183030;23;20224;-88
2022/03/23 14:55:47;;;;;;;9.17;6.40;;;;;;;;;;6185415;23;20190;-89
2022/03/23 14:58:31;;;;;;;13.77;8.07;;;;;;;;;;6185301;23;20246;-88
2022/03/23 15:01:21;;;;;;;12.33;7.80;;;;;;;;;;6186619;23;20205;-88
2022/03/23 15:03:51;;;;;;;3.57;3.27;;;;;;;;;;6185590;23;20199;-89
2022/03/23 15:14:42;;;;;;;11.20;6.23;;;;;;;;;;6186091;23;20229;-88
2022/03/23 15:17:16;;;;;;;10.87;7.07;;;;;;;;;;6183802;23;20185;-89
2022/03/23 15:19:45;;;;;;;7.87;4.83;;;;;;;;;;6185665;23;20178;-88
2022/03/23 15:22:13;;;;;;;16.43;5.60;;;;;;;;;;6182777;23;20178;-89
2022/03/23 15:24:45;;;;;;;13.47;6.67;;;;;;;;;;6182650;23;20185;-89
2022/03/23 15:27:18;;;;;;;10.37;7.63;;;;;;;;;;6183690;23;20182;-89
2022/03/23 15:29:46;;;;;;;12.90;5.47;;;;;;;;;;6183447;23;20182;-88
2022/03/23 15:32:15;;;;;;;6.20;3.17;;;;;;;;;;6182956;23;20206;-88
2022/03/23 15:34:44;;;;;;;8.50;6.67;;;;;;;;;;6183702;23;20202;-87
2022/03/23 15:37:19;;;;;;;6.03;4.03;;;;;;;;;;6183338;23;20183;-81
2022/03/23 15:39:49;;;;;;;9.13;5.90;;;;;;;;;;6182045;23;20205;-82
2022/03/23 15:45:01;;;;;;;5.70;3.50;;;;;;;;;;6205369;23;20174;-81
2022/03/23 15:47:29;;;;;;;7.67;3.53;;;;;;;;;;6181267;23;20225;-81
2022/03/23 15:49:59;;;;;;;5.37;4.17;;;;;;;;;;6182902;23;20434;-82
2022/03/23 15:52:28;;;;;;;9.03;6.70;;;;;;;;;;6207401;23;20171;-81
2022/03/23 15:54:57;;;;;;;4.47;3.40;;;;;;;;;;6181904;23;20202;-81
2022/03/23 15:57:27;;;;;;;8.83;4.47;;;;;;;;;;6181397;23;20186;-80
2022/03/23 15:59:55;;;;;;;9.13;4.57;;;;;;;;;;6186847;23;20177;-80
2022/03/23 16:02:24;;;;;;;15.07;5.03;;;;;;;;;;6186769;23;20176;-81
2022/03/23 16:04:53;;;;;;;10.80;6.37;;;;;;;;;;6209357;23;20252;-82
2022/03/23 16:07:21;;;;;;;10.17;4.90;;;;;;;;;;6181785;23;20185;-81
2022/03/23 16:09:50;;;;;;;9.10;5.63;;;;;;;;;;6181088;23;20180;-82
2022/03/23 16:12:18;;;;;;;6.77;3.43;;;;;;;;;;6182036;23;20197;-82
2022/03/23 16:14:48;;;;;;;6.33;3.00;;;;;;;;;;6181381;23;20264;-81
2022/03/23 16:17:17;;;;;;;13.57;6.23;;;;;;;;;;6186395;23;20183;-81
2022/03/23 16:19:45;;;;;;;6.00;3.97;;;;;;;;;;6212455;23;20243;-79
2022/03/23 16:22:14;;;;;;;2.27;1.87;;;;;;;;;;6187277;23;20181;-80
2022/03/23 16:24:42;;;;;;;11.90;5.27;;;;;;;;;;6187666;23;20174;-80
2022/03/23 16:27:11;;;;;;;3.83;2.30;;;;;;;;;;6188924;23;20179;-80
2022/03/23 16:29:40;;;;;;;11.17;3.87;;;;;;;;;;6189027;23;20175;-80
2022/03/23 16:32:20;;;;;;;8.33;5.43;;;;;;;;;;6189522;23;20170;-79
2022/03/23 16:34:48;;;;;;;13.00;6.33;;;;;;;;;;6188708;23;20179;-81
2022/03/23 16:37:17;;;;;;;7.37;5.60;;;;;;;;;;6188949;23;20205;-79
2022/03/23 16:39:46;;;;;;;11.50;5.63;;;;;;;;;;6188737;23;20189;-79
2022/03/23 16:42:15;;;;;;;15.33;7.47;;;;;;;;;;6188786;23;20175;-80
2022/03/23 16:44:44;;;;;;;12.03;6.93;;;;;;;;;;6187986;23;20224;-80
2022/03/23 16:47:12;;;;;;;16.73;7.80;;;;;;;;;;6188005;23;20209;-80
2022/03/23 16:49:42;;;;;;;2.30;2.03;;;;;;;;;;6214715;23;20249;-80
2022/03/23 16:52:10;;;;;;;12.40;6.77;;;;;;;;;;6188468;23;20326;-80
2022/03/23 16:54:39;;;;;;;6.63;5.03;;;;;;;;;;6189101;23;20280;-80
2022/03/23 16:57:08;;;;;;;5.90;3.83;;;;;;;;;;6188264;23;20289;-80
2022/03/23 16:59:37;;;;;;;13.07;6.53;;;;;;;;;;6215421;23;20197;-79
2022/03/23 17:02:05;;;;;;;6.07;5.10;;;;;;;;;;6187712;23;20170;-79
2022/03/23 17:12:54;;;;;;;12.30;8.93;;;;;;;;;;6188579;23;20180;-79
2022/03/23 17:15:24;;;;;;;16.03;8.13;;;;;;;;;;6215088;23;20178;-80
2022/03/23 17:17:56;;;;;;;14.67;8.33;;;;;;;;;;6187286;23;20182;-81
2022/03/23 17:20:25;;;;;;;7.37;6.20;;;;;;;;;;6212187;23;20200;-81
2022/03/23 17:22:54;;;;;;;9.13;4.77;;;;;;;;;;6213286;23;20167;-81
2022/03/23 17:25:23;;;;;;;9.23;6.97;;;;;;;;;;6214942;23;20197;-81
2022/03/23 17:27:52;;;;;;;8.27;5.67;;;;;;;;;;6188431;23;20179;-79
2022/03/23 17:30:20;;;;;;;12.67;9.23;;;;;;;;;;6187840;23;20181;-79
2022/03/23 17:32:49;;;;;;;3.63;3.33;;;;;;;;;;6187109;23;20182;-79
2022/03/23 17:35:17;;;;;;;6.70;5.90;;;;;;;;;;6187936;23;20181;-79
2022/03/23 17:37:46;;;;;;;3.07;2.83;;;;;;;;;;6188354;23;20201;-81
2022/03/23 17:40:16;;;;;;;10.93;6.17;;;;;;;;;;6188568;23;20178;-81